sensor_id;sensor_type;location;lat;lon;timestamp;P1;durP1;ratioP1;P2;durP2;ratioP2
36923;SDS011;22841;50.252;18.688;2023-11-19T00:01:23;109.28;;;44.75;;
36923;SDS011;22841;50.252;18.688;2023-11-19T00:03:49;105.57;;;45.03;;
36923;SDS011;22841;50.252;18.688;2023-11-19T00:08:51;107.80;;;48.25;;
36923;SDS011;22841;50.252;18.688;2023-11-19T00:11:17;119.63;;;48.67;;
36923;SDS011;22841;50.252;18.688;2023-11-19T00:16:19;108.97;;;46.25;;
36923;SDS011;22841;50.252;18.688;2023-11-19T00:18:46;123.65;;;49.15;;
36923;SDS011;22841;50.252;18.688;2023-11-19T00:21:12;109.35;;;48.50;;
36923;SDS011;22841;50.252;18.688;2023-11-19T00:23:38;117.10;;;48.42;;
36923;SDS011;22841;50.252;18.688;2023-11-19T00:26:04;110.30;;;44.78;;
36923;SDS011;22841;50.252;18.688;2023-11-19T00:31:07;89.38;;;37.17;;
36923;SDS011;22841;50.252;18.688;2023-11-19T00:33:33;95.50;;;40.80;;
36923;SDS011;22841;50.252;18.688;2023-11-19T00:36:00;114.22;;;47.08;;
36923;SDS011;22841;50.252;18.688;2023-11-19T00:41:02;124.50;;;47.90;;
36923;SDS011;22841;50.252;18.688;2023-11-19T00:43:29;101.57;;;42.53;;
36923;SDS011;22841;50.252;18.688;2023-11-19T00:51:07;85.45;;;39.40;;
36923;SDS011;22841;50.252;18.688;2023-11-19T01:01:21;81.25;;;36.50;;
36923;SDS011;22841;50.252;18.688;2023-11-19T01:22:24;94.32;;;38.38;;
36923;SDS011;22841;50.252;18.688;2023-11-19T06:07:47;85.32;;;38.85;;
36923;SDS011;22841;50.252;18.688;2023-11-19T06:33:36;59.05;;;26.08;;
36923;SDS011;22841;50.252;18.688;2023-11-19T06:54:14;61.22;;;28.58;;
36923;SDS011;22841;50.252;18.688;2023-11-19T06:56:40;57.97;;;28.13;;
36923;SDS011;22841;50.252;18.688;2023-11-19T06:59:07;53.28;;;26.33;;
36923;SDS011;22841;50.252;18.688;2023-11-19T07:01:34;58.90;;;28.23;;
36923;SDS011;22841;50.252;18.688;2023-11-19T07:53:24;55.05;;;25.52;;
36923;SDS011;22841;50.252;18.688;2023-11-19T07:55:50;58.72;;;26.83;;
36923;SDS011;22841;50.252;18.688;2023-11-19T08:00:52;53.22;;;26.88;;
36923;SDS011;22841;50.252;18.688;2023-11-19T08:05:57;44.60;;;24.67;;
36923;SDS011;22841;50.252;18.688;2023-11-19T08:08:23;50.65;;;23.17;;
36923;SDS011;22841;50.252;18.688;2023-11-19T08:10:49;56.45;;;25.70;;
36923;SDS011;22841;50.252;18.688;2023-11-19T08:13:20;55.45;;;25.10;;
36923;SDS011;22841;50.252;18.688;2023-11-19T08:15:46;56.47;;;26.33;;
36923;SDS011;22841;50.252;18.688;2023-11-19T08:18:12;52.65;;;24.75;;
36923;SDS011;22841;50.252;18.688;2023-11-19T08:20:39;46.22;;;23.92;;
36923;SDS011;22841;50.252;18.688;2023-11-19T08:23:05;55.00;;;25.08;;
36923;SDS011;22841;50.252;18.688;2023-11-19T08:28:02;55.20;;;26.75;;
36923;SDS011;22841;50.252;18.688;2023-11-19T08:30:29;55.55;;;25.63;;
36923;SDS011;22841;50.252;18.688;2023-11-19T08:32:56;54.53;;;26.13;;
36923;SDS011;22841;50.252;18.688;2023-11-19T08:35:22;48.50;;;24.85;;
36923;SDS011;22841;50.252;18.688;2023-11-19T08:37:49;49.85;;;24.77;;
36923;SDS011;22841;50.252;18.688;2023-11-19T08:40:15;55.42;;;26.73;;
36923;SDS011;22841;50.252;18.688;2023-11-19T08:42:41;57.28;;;27.50;;
36923;SDS011;22841;50.252;18.688;2023-11-19T08:45:08;57.90;;;27.33;;
36923;SDS011;22841;50.252;18.688;2023-11-19T08:47:37;56.75;;;27.10;;
36923;SDS011;22841;50.252;18.688;2023-11-19T08:50:03;68.13;;;31.30;;
36923;SDS011;22841;50.252;18.688;2023-11-19T08:52:30;69.20;;;30.92;;
36923;SDS011;22841;50.252;18.688;2023-11-19T08:54:56;70.70;;;31.05;;
36923;SDS011;22841;50.252;18.688;2023-11-19T08:57:22;71.70;;;31.15;;
36923;SDS011;22841;50.252;18.688;2023-11-19T08:59:48;70.38;;;33.10;;
36923;SDS011;22841;50.252;18.688;2023-11-19T09:02:14;63.42;;;30.05;;
36923;SDS011;22841;50.252;18.688;2023-11-19T09:04:42;65.30;;;29.80;;
36923;SDS011;22841;50.252;18.688;2023-11-19T09:07:08;62.83;;;29.90;;
36923;SDS011;22841;50.252;18.688;2023-11-19T09:20:00;55.13;;;26.15;;
36923;SDS011;22841;50.252;18.688;2023-11-19T09:22:26;57.63;;;25.98;;
36923;SDS011;22841;50.252;18.688;2023-11-19T09:27:29;49.85;;;24.65;;
36923;SDS011;22841;50.252;18.688;2023-11-19T09:35:07;52.55;;;24.92;;
36923;SDS011;22841;50.252;18.688;2023-11-19T09:37:33;58.53;;;25.92;;
36923;SDS011;22841;50.252;18.688;2023-11-19T09:40:00;51.08;;;24.70;;
36923;SDS011;22841;50.252;18.688;2023-11-19T09:42:26;57.47;;;25.17;;
36923;SDS011;22841;50.252;18.688;2023-11-19T09:44:53;50.92;;;24.70;;
36923;SDS011;22841;50.252;18.688;2023-11-19T09:47:21;52.85;;;25.08;;
36923;SDS011;22841;50.252;18.688;2023-11-19T09:49:48;57.88;;;25.63;;
36923;SDS011;22841;50.252;18.688;2023-11-19T09:52:15;51.10;;;25.40;;
36923;SDS011;22841;50.252;18.688;2023-11-19T09:54:41;52.72;;;24.92;;
36923;SDS011;22841;50.252;18.688;2023-11-19T09:57:08;54.47;;;25.10;;
36923;SDS011;22841;50.252;18.688;2023-11-19T09:59:36;62.70;;;28.88;;
36923;SDS011;22841;50.252;18.688;2023-11-19T10:02:04;59.60;;;27.67;;
36923;SDS011;22841;50.252;18.688;2023-11-19T10:04:30;61.33;;;28.95;;
36923;SDS011;22841;50.252;18.688;2023-11-19T10:07:00;62.17;;;29.30;;
36923;SDS011;22841;50.252;18.688;2023-11-19T10:09:26;55.40;;;26.27;;
36923;SDS011;22841;50.252;18.688;2023-11-19T10:11:52;44.38;;;22.77;;
36923;SDS011;22841;50.252;18.688;2023-11-19T10:14:19;46.03;;;22.77;;
36923;SDS011;22841;50.252;18.688;2023-11-19T10:16:49;42.75;;;19.88;;
36923;SDS011;22841;50.252;18.688;2023-11-19T10:19:18;49.83;;;19.60;;
36923;SDS011;22841;50.252;18.688;2023-11-19T10:21:48;42.47;;;19.63;;
36923;SDS011;22841;50.252;18.688;2023-11-19T10:24:14;41.13;;;17.77;;
36923;SDS011;22841;50.252;18.688;2023-11-19T10:26:40;33.53;;;15.40;;
36923;SDS011;22841;50.252;18.688;2023-11-19T10:29:08;31.23;;;15.02;;
36923;SDS011;22841;50.252;18.688;2023-11-19T10:31:34;44.55;;;17.08;;
36923;SDS011;22841;50.252;18.688;2023-11-19T10:34:00;32.03;;;15.68;;
36923;SDS011;22841;50.252;18.688;2023-11-19T10:36:38;30.20;;;14.10;;
36923;SDS011;22841;50.252;18.688;2023-11-19T10:39:09;30.80;;;15.05;;
36923;SDS011;22841;50.252;18.688;2023-11-19T10:41:35;33.45;;;15.95;;
36923;SDS011;22841;50.252;18.688;2023-11-19T10:44:01;38.97;;;18.17;;
36923;SDS011;22841;50.252;18.688;2023-11-19T10:46:40;40.08;;;16.80;;
36923;SDS011;22841;50.252;18.688;2023-11-19T10:49:07;43.25;;;19.20;;
36923;SDS011;22841;50.252;18.688;2023-11-19T10:51:34;35.40;;;16.63;;
36923;SDS011;22841;50.252;18.688;2023-11-19T10:54:04;46.10;;;19.73;;
36923;SDS011;22841;50.252;18.688;2023-11-19T10:56:31;44.05;;;20.88;;
36923;SDS011;22841;50.252;18.688;2023-11-19T10:58:59;50.38;;;21.02;;
36923;SDS011;22841;50.252;18.688;2023-11-19T11:01:27;49.42;;;19.45;;
36923;SDS011;22841;50.252;18.688;2023-11-19T11:03:59;41.00;;;21.00;;
36923;SDS011;22841;50.252;18.688;2023-11-19T11:06:27;47.40;;;21.30;;
36923;SDS011;22841;50.252;18.688;2023-11-19T11:08:54;42.53;;;22.38;;
36923;SDS011;22841;50.252;18.688;2023-11-19T11:11:22;54.85;;;24.00;;
36923;SDS011;22841;50.252;18.688;2023-11-19T11:13:49;49.58;;;24.20;;
36923;SDS011;22841;50.252;18.688;2023-11-19T11:16:18;44.30;;;21.48;;
36923;SDS011;22841;50.252;18.688;2023-11-19T11:18:46;38.25;;;19.70;;
36923;SDS011;22841;50.252;18.688;2023-11-19T11:21:15;47.03;;;21.60;;
36923;SDS011;22841;50.252;18.688;2023-11-19T11:35:43;34.15;;;16.88;;
36923;SDS011;22841;50.252;18.688;2023-11-19T11:38:24;33.35;;;16.67;;
36923;SDS011;22841;50.252;18.688;2023-11-19T11:43:47;30.25;;;15.07;;
36923;SDS011;22841;50.252;18.688;2023-11-19T12:02:09;33.75;;;16.55;;
36923;SDS011;22841;50.252;18.688;2023-11-19T12:04:39;35.13;;;16.95;;
36923;SDS011;22841;50.252;18.688;2023-11-19T12:07:06;36.10;;;16.48;;
36923;SDS011;22841;50.252;18.688;2023-11-19T12:09:39;30.77;;;15.70;;
36923;SDS011;22841;50.252;18.688;2023-11-19T12:12:07;32.22;;;15.48;;
36923;SDS011;22841;50.252;18.688;2023-11-19T12:17:36;33.65;;;16.27;;
36923;SDS011;22841;50.252;18.688;2023-11-19T12:20:05;34.70;;;16.10;;
36923;SDS011;22841;50.252;18.688;2023-11-19T12:22:36;33.72;;;16.67;;
36923;SDS011;22841;50.252;18.688;2023-11-19T12:25:10;38.38;;;18.25;;
36923;SDS011;22841;50.252;18.688;2023-11-19T12:27:44;38.33;;;18.27;;
36923;SDS011;22841;50.252;18.688;2023-11-19T12:30:11;40.67;;;21.13;;
36923;SDS011;22841;50.252;18.688;2023-11-19T12:32:44;47.45;;;23.40;;
36923;SDS011;22841;50.252;18.688;2023-11-19T12:35:11;46.33;;;24.45;;
36923;SDS011;22841;50.252;18.688;2023-11-19T12:37:41;59.20;;;26.70;;
36923;SDS011;22841;50.252;18.688;2023-11-19T12:42:39;55.60;;;28.88;;
36923;SDS011;22841;50.252;18.688;2023-11-19T12:45:06;64.00;;;30.67;;
36923;SDS011;22841;50.252;18.688;2023-11-19T12:47:41;64.18;;;29.92;;
36923;SDS011;22841;50.252;18.688;2023-11-19T12:50:09;60.38;;;30.27;;
36923;SDS011;22841;50.252;18.688;2023-11-19T12:52:36;58.42;;;29.67;;
36923;SDS011;22841;50.252;18.688;2023-11-19T12:55:03;61.63;;;30.77;;
36923;SDS011;22841;50.252;18.688;2023-11-19T12:57:35;55.88;;;27.73;;
36923;SDS011;22841;50.252;18.688;2023-11-19T13:00:17;52.80;;;24.83;;
36923;SDS011;22841;50.252;18.688;2023-11-19T13:05:21;54.60;;;26.00;;
36923;SDS011;22841;50.252;18.688;2023-11-19T13:08:00;54.83;;;26.05;;
36923;SDS011;22841;50.252;18.688;2023-11-19T13:10:31;56.17;;;25.98;;
36923;SDS011;22841;50.252;18.688;2023-11-19T13:13:05;60.00;;;28.80;;
36923;SDS011;22841;50.252;18.688;2023-11-19T13:15:34;68.05;;;30.70;;
36923;SDS011;22841;50.252;18.688;2023-11-19T13:18:00;62.15;;;27.70;;
36923;SDS011;22841;50.252;18.688;2023-11-19T13:20:28;59.78;;;27.90;;
36923;SDS011;22841;50.252;18.688;2023-11-19T13:22:55;54.95;;;27.40;;
36923;SDS011;22841;50.252;18.688;2023-11-19T13:25:21;55.00;;;26.58;;
36923;SDS011;22841;50.252;18.688;2023-11-19T13:27:48;55.22;;;24.95;;
36923;SDS011;22841;50.252;18.688;2023-11-19T13:30:14;46.17;;;23.70;;
36923;SDS011;22841;50.252;18.688;2023-11-19T13:32:41;47.20;;;23.45;;
36923;SDS011;22841;50.252;18.688;2023-11-19T13:35:09;41.50;;;19.77;;
36923;SDS011;22841;50.252;18.688;2023-11-19T13:37:36;36.58;;;17.73;;
36923;SDS011;22841;50.252;18.688;2023-11-19T13:40:02;35.72;;;18.73;;
36923;SDS011;22841;50.252;18.688;2023-11-19T13:42:28;31.67;;;17.00;;
36923;SDS011;22841;50.252;18.688;2023-11-19T13:44:54;35.13;;;16.15;;
36923;SDS011;22841;50.252;18.688;2023-11-19T13:47:22;29.38;;;15.45;;
36923;SDS011;22841;50.252;18.688;2023-11-19T13:49:49;33.45;;;15.43;;
36923;SDS011;22841;50.252;18.688;2023-11-19T13:52:15;31.55;;;16.40;;
36923;SDS011;22841;50.252;18.688;2023-11-19T13:54:41;33.90;;;17.13;;
36923;SDS011;22841;50.252;18.688;2023-11-19T13:57:07;31.40;;;15.80;;
36923;SDS011;22841;50.252;18.688;2023-11-19T13:59:38;32.63;;;16.73;;
36923;SDS011;22841;50.252;18.688;2023-11-19T14:02:06;30.55;;;15.25;;
36923;SDS011;22841;50.252;18.688;2023-11-19T14:04:33;35.10;;;17.30;;
36923;SDS011;22841;50.252;18.688;2023-11-19T14:06:59;33.70;;;16.45;;
36923;SDS011;22841;50.252;18.688;2023-11-19T14:09:25;29.92;;;15.23;;
36923;SDS011;22841;50.252;18.688;2023-11-19T14:11:51;33.35;;;14.75;;
36923;SDS011;22841;50.252;18.688;2023-11-19T14:14:17;25.88;;;13.43;;
36923;SDS011;22841;50.252;18.688;2023-11-19T14:16:43;22.60;;;12.35;;
36923;SDS011;22841;50.252;18.688;2023-11-19T14:19:10;24.48;;;12.13;;
36923;SDS011;22841;50.252;18.688;2023-11-19T14:21:36;20.50;;;11.20;;
36923;SDS011;22841;50.252;18.688;2023-11-19T14:24:02;17.85;;;10.48;;
36923;SDS011;22841;50.252;18.688;2023-11-19T14:26:28;19.65;;;10.70;;
36923;SDS011;22841;50.252;18.688;2023-11-19T14:28:54;20.23;;;11.23;;
36923;SDS011;22841;50.252;18.688;2023-11-19T14:31:20;21.17;;;10.75;;
36923;SDS011;22841;50.252;18.688;2023-11-19T14:33:47;26.55;;;11.30;;
36923;SDS011;22841;50.252;18.688;2023-11-19T14:36:14;23.17;;;12.40;;
36923;SDS011;22841;50.252;18.688;2023-11-19T14:38:40;22.98;;;12.27;;
36923;SDS011;22841;50.252;18.688;2023-11-19T14:41:06;24.55;;;11.48;;
36923;SDS011;22841;50.252;18.688;2023-11-19T14:43:33;15.60;;;9.60;;
36923;SDS011;22841;50.252;18.688;2023-11-19T14:45:59;21.80;;;10.15;;
36923;SDS011;22841;50.252;18.688;2023-11-19T14:48:28;17.17;;;10.18;;
36923;SDS011;22841;50.252;18.688;2023-11-19T14:50:54;17.15;;;9.80;;
36923;SDS011;22841;50.252;18.688;2023-11-19T14:53:20;20.55;;;9.50;;
36923;SDS011;22841;50.252;18.688;2023-11-19T14:55:48;20.13;;;10.40;;
36923;SDS011;22841;50.252;18.688;2023-11-19T14:58:14;20.85;;;10.05;;
36923;SDS011;22841;50.252;18.688;2023-11-19T15:03:16;23.65;;;10.88;;
36923;SDS011;22841;50.252;18.688;2023-11-19T15:05:45;21.30;;;10.43;;
36923;SDS011;22841;50.252;18.688;2023-11-19T15:08:14;18.92;;;9.40;;
36923;SDS011;22841;50.252;18.688;2023-11-19T15:10:43;17.90;;;9.48;;
36923;SDS011;22841;50.252;18.688;2023-11-19T15:13:10;22.00;;;10.23;;
36923;SDS011;22841;50.252;18.688;2023-11-19T15:15:36;24.25;;;10.82;;
36923;SDS011;22841;50.252;18.688;2023-11-19T15:18:04;17.33;;;9.82;;
36923;SDS011;22841;50.252;18.688;2023-11-19T15:20:30;18.58;;;9.68;;
36923;SDS011;22841;50.252;18.688;2023-11-19T15:22:57;17.75;;;9.35;;
36923;SDS011;22841;50.252;18.688;2023-11-19T15:25:23;18.52;;;9.35;;
36923;SDS011;22841;50.252;18.688;2023-11-19T15:30:26;19.38;;;10.57;;
36923;SDS011;22841;50.252;18.688;2023-11-19T15:35:28;17.63;;;10.27;;
36923;SDS011;22841;50.252;18.688;2023-11-19T15:37:54;20.08;;;10.38;;
36923;SDS011;22841;50.252;18.688;2023-11-19T15:40:21;26.27;;;12.63;;
36923;SDS011;22841;50.252;18.688;2023-11-19T15:42:48;23.35;;;12.30;;
36923;SDS011;22841;50.252;18.688;2023-11-19T15:55:37;18.45;;;10.38;;
36923;SDS011;22841;50.252;18.688;2023-11-19T15:58:04;21.83;;;11.40;;
36923;SDS011;22841;50.252;18.688;2023-11-19T16:00:30;23.77;;;11.30;;
36923;SDS011;22841;50.252;18.688;2023-11-19T16:02:57;23.20;;;11.93;;
36923;SDS011;22841;50.252;18.688;2023-11-19T16:05:23;20.38;;;10.52;;
36923;SDS011;22841;50.252;18.688;2023-11-19T16:07:49;21.98;;;11.15;;
36923;SDS011;22841;50.252;18.688;2023-11-19T16:10:18;20.58;;;11.00;;
36923;SDS011;22841;50.252;18.688;2023-11-19T16:12:47;19.30;;;10.68;;
36923;SDS011;22841;50.252;18.688;2023-11-19T16:15:13;19.30;;;10.93;;
36923;SDS011;22841;50.252;18.688;2023-11-19T16:20:16;21.70;;;10.55;;
36923;SDS011;22841;50.252;18.688;2023-11-19T16:22:42;21.23;;;11.07;;
36923;SDS011;22841;50.252;18.688;2023-11-19T16:25:08;20.23;;;12.07;;
36923;SDS011;22841;50.252;18.688;2023-11-19T16:27:35;20.20;;;12.02;;
36923;SDS011;22841;50.252;18.688;2023-11-19T16:30:01;20.35;;;12.30;;
36923;SDS011;22841;50.252;18.688;2023-11-19T16:32:28;22.45;;;13.05;;
36923;SDS011;22841;50.252;18.688;2023-11-19T16:34:54;22.25;;;13.07;;
36923;SDS011;22841;50.252;18.688;2023-11-19T16:37:21;25.35;;;13.57;;
36923;SDS011;22841;50.252;18.688;2023-11-19T16:39:47;22.67;;;12.70;;
36923;SDS011;22841;50.252;18.688;2023-11-19T16:42:13;26.50;;;13.32;;
36923;SDS011;22841;50.252;18.688;2023-11-19T16:44:40;21.88;;;12.95;;
36923;SDS011;22841;50.252;18.688;2023-11-19T16:47:07;27.85;;;13.85;;
36923;SDS011;22841;50.252;18.688;2023-11-19T16:49:33;23.02;;;13.07;;
36923;SDS011;22841;50.252;18.688;2023-11-19T16:51:59;22.85;;;13.50;;
36923;SDS011;22841;50.252;18.688;2023-11-19T16:54:26;24.92;;;13.35;;
36923;SDS011;22841;50.252;18.688;2023-11-19T16:56:52;24.42;;;12.43;;
36923;SDS011;22841;50.252;18.688;2023-11-19T17:01:54;20.50;;;11.60;;
36923;SDS011;22841;50.252;18.688;2023-11-19T17:04:20;21.83;;;12.60;;
36923;SDS011;22841;50.252;18.688;2023-11-19T17:06:46;22.77;;;11.98;;
36923;SDS011;22841;50.252;18.688;2023-11-19T17:09:13;20.20;;;12.82;;
36923;SDS011;22841;50.252;18.688;2023-11-19T17:11:39;21.48;;;12.38;;
36923;SDS011;22841;50.252;18.688;2023-11-19T17:14:07;21.33;;;11.75;;
36923;SDS011;22841;50.252;18.688;2023-11-19T17:16:33;18.88;;;10.95;;
36923;SDS011;22841;50.252;18.688;2023-11-19T17:24:11;19.35;;;11.82;;
36923;SDS011;22841;50.252;18.688;2023-11-19T17:26:38;19.80;;;11.75;;
36923;SDS011;22841;50.252;18.688;2023-11-19T17:34:16;18.50;;;11.65;;
36923;SDS011;22841;50.252;18.688;2023-11-19T17:36:43;21.58;;;12.45;;
36923;SDS011;22841;50.252;18.688;2023-11-19T17:39:09;20.77;;;12.65;;
36923;SDS011;22841;50.252;18.688;2023-11-19T17:41:36;21.33;;;12.57;;
36923;SDS011;22841;50.252;18.688;2023-11-19T17:44:03;22.10;;;12.38;;
36923;SDS011;22841;50.252;18.688;2023-11-19T17:46:29;28.75;;;14.18;;
36923;SDS011;22841;50.252;18.688;2023-11-19T17:48:55;28.98;;;13.90;;
36923;SDS011;22841;50.252;18.688;2023-11-19T17:51:22;34.25;;;17.58;;
36923;SDS011;22841;50.252;18.688;2023-11-19T17:53:48;24.67;;;14.32;;
36923;SDS011;22841;50.252;18.688;2023-11-19T17:56:14;24.35;;;14.00;;
36923;SDS011;22841;50.252;18.688;2023-11-19T17:58:40;25.95;;;15.15;;
36923;SDS011;22841;50.252;18.688;2023-11-19T18:01:06;35.60;;;18.65;;
36923;SDS011;22841;50.252;18.688;2023-11-19T18:03:33;33.03;;;18.95;;
36923;SDS011;22841;50.252;18.688;2023-11-19T18:05:59;36.75;;;20.20;;
36923;SDS011;22841;50.252;18.688;2023-11-19T18:08:25;27.27;;;16.38;;
36923;SDS011;22841;50.252;18.688;2023-11-19T18:10:51;31.15;;;17.13;;
36923;SDS011;22841;50.252;18.688;2023-11-19T18:13:18;34.72;;;17.63;;
36923;SDS011;22841;50.252;18.688;2023-11-19T18:15:44;29.70;;;17.63;;
36923;SDS011;22841;50.252;18.688;2023-11-19T18:18:10;29.42;;;15.93;;
36923;SDS011;22841;50.252;18.688;2023-11-19T18:20:36;26.23;;;15.15;;
36923;SDS011;22841;50.252;18.688;2023-11-19T18:23:02;31.50;;;16.90;;
36923;SDS011;22841;50.252;18.688;2023-11-19T18:25:29;31.27;;;17.65;;
36923;SDS011;22841;50.252;18.688;2023-11-19T18:27:55;32.13;;;18.85;;
36923;SDS011;22841;50.252;18.688;2023-11-19T18:30:21;38.63;;;20.70;;
36923;SDS011;22841;50.252;18.688;2023-11-19T18:32:47;32.47;;;17.77;;
36923;SDS011;22841;50.252;18.688;2023-11-19T18:35:13;38.83;;;21.20;;
36923;SDS011;22841;50.252;18.688;2023-11-19T18:37:42;35.97;;;19.52;;
36923;SDS011;22841;50.252;18.688;2023-11-19T18:40:08;30.90;;;17.35;;
36923;SDS011;22841;50.252;18.688;2023-11-19T18:42:35;32.60;;;17.23;;
36923;SDS011;22841;50.252;18.688;2023-11-19T18:45:02;29.10;;;17.95;;
36923;SDS011;22841;50.252;18.688;2023-11-19T18:47:32;30.77;;;16.73;;
36923;SDS011;22841;50.252;18.688;2023-11-19T18:49:59;33.38;;;17.48;;
36923;SDS011;22841;50.252;18.688;2023-11-19T18:52:25;34.28;;;19.45;;
36923;SDS011;22841;50.252;18.688;2023-11-19T18:54:52;35.33;;;19.10;;
36923;SDS011;22841;50.252;18.688;2023-11-19T18:57:19;29.70;;;17.05;;
36923;SDS011;22841;50.252;18.688;2023-11-19T18:59:45;29.00;;;16.25;;
36923;SDS011;22841;50.252;18.688;2023-11-19T19:02:12;34.17;;;17.30;;
36923;SDS011;22841;50.252;18.688;2023-11-19T19:04:40;37.97;;;18.02;;
36923;SDS011;22841;50.252;18.688;2023-11-19T19:07:06;32.20;;;16.48;;
36923;SDS011;22841;50.252;18.688;2023-11-19T19:09:34;23.90;;;15.85;;
36923;SDS011;22841;50.252;18.688;2023-11-19T19:12:03;34.97;;;16.98;;
36923;SDS011;22841;50.252;18.688;2023-11-19T19:14:29;36.40;;;17.60;;
36923;SDS011;22841;50.252;18.688;2023-11-19T19:16:55;28.10;;;16.63;;
36923;SDS011;22841;50.252;18.688;2023-11-19T19:19:22;34.10;;;17.77;;
36923;SDS011;22841;50.252;18.688;2023-11-19T19:21:49;30.15;;;17.60;;
36923;SDS011;22841;50.252;18.688;2023-11-19T19:24:15;26.40;;;16.05;;
36923;SDS011;22841;50.252;18.688;2023-11-19T19:26:41;32.20;;;16.45;;
36923;SDS011;22841;50.252;18.688;2023-11-19T19:29:07;25.38;;;15.38;;
36923;SDS011;22841;50.252;18.688;2023-11-19T19:31:34;33.90;;;17.38;;
36923;SDS011;22841;50.252;18.688;2023-11-19T19:34:00;33.78;;;16.67;;
36923;SDS011;22841;50.252;18.688;2023-11-19T19:36:26;33.75;;;17.10;;
36923;SDS011;22841;50.252;18.688;2023-11-19T19:38:59;32.08;;;18.23;;
36923;SDS011;22841;50.252;18.688;2023-11-19T19:41:25;36.83;;;18.85;;
36923;SDS011;22841;50.252;18.688;2023-11-19T19:43:52;37.60;;;19.05;;
36923;SDS011;22841;50.252;18.688;2023-11-19T19:46:18;34.20;;;19.35;;
36923;SDS011;22841;50.252;18.688;2023-11-19T19:48:44;31.75;;;18.02;;
36923;SDS011;22841;50.252;18.688;2023-11-19T19:51:11;35.38;;;18.00;;
36923;SDS011;22841;50.252;18.688;2023-11-19T19:53:37;35.38;;;18.00;;
36923;SDS011;22841;50.252;18.688;2023-11-19T19:56:04;35.65;;;19.08;;
36923;SDS011;22841;50.252;18.688;2023-11-19T19:58:30;38.35;;;19.38;;
36923;SDS011;22841;50.252;18.688;2023-11-19T20:00:58;36.78;;;19.63;;
36923;SDS011;22841;50.252;18.688;2023-11-19T20:03:25;38.60;;;20.10;;
36923;SDS011;22841;50.252;18.688;2023-11-19T20:05:55;39.47;;;19.90;;
36923;SDS011;22841;50.252;18.688;2023-11-19T20:08:22;33.60;;;19.05;;
36923;SDS011;22841;50.252;18.688;2023-11-19T20:10:50;39.28;;;19.08;;
36923;SDS011;22841;50.252;18.688;2023-11-19T20:13:16;37.30;;;20.77;;
36923;SDS011;22841;50.252;18.688;2023-11-19T20:15:43;34.45;;;18.73;;
36923;SDS011;22841;50.252;18.688;2023-11-19T20:18:10;36.95;;;19.92;;
36923;SDS011;22841;50.252;18.688;2023-11-19T20:20:39;35.80;;;19.65;;
36923;SDS011;22841;50.252;18.688;2023-11-19T20:23:06;31.95;;;18.67;;
36923;SDS011;22841;50.252;18.688;2023-11-19T20:25:32;34.20;;;18.77;;
36923;SDS011;22841;50.252;18.688;2023-11-19T20:27:58;34.25;;;19.55;;
36923;SDS011;22841;50.252;18.688;2023-11-19T20:30:24;34.47;;;17.83;;
36923;SDS011;22841;50.252;18.688;2023-11-19T20:32:50;34.95;;;18.00;;
36923;SDS011;22841;50.252;18.688;2023-11-19T20:35:16;33.25;;;18.95;;
36923;SDS011;22841;50.252;18.688;2023-11-19T20:37:43;33.33;;;18.02;;
36923;SDS011;22841;50.252;18.688;2023-11-19T20:40:10;38.50;;;19.40;;
36923;SDS011;22841;50.252;18.688;2023-11-19T20:42:37;36.83;;;18.13;;
36923;SDS011;22841;50.252;18.688;2023-11-19T20:45:07;33.00;;;17.73;;
36923;SDS011;22841;50.252;18.688;2023-11-19T20:47:40;33.35;;;18.17;;
36923;SDS011;22841;50.252;18.688;2023-11-19T20:50:07;29.02;;;17.30;;
36923;SDS011;22841;50.252;18.688;2023-11-19T20:52:33;26.88;;;15.90;;
36923;SDS011;22841;50.252;18.688;2023-11-19T20:55:01;26.40;;;15.70;;
36923;SDS011;22841;50.252;18.688;2023-11-19T20:57:28;27.92;;;14.73;;
36923;SDS011;22841;50.252;18.688;2023-11-19T20:59:54;28.85;;;15.57;;
36923;SDS011;22841;50.252;18.688;2023-11-19T21:02:20;31.60;;;15.13;;
36923;SDS011;22841;50.252;18.688;2023-11-19T21:04:46;25.73;;;14.20;;
36923;SDS011;22841;50.252;18.688;2023-11-19T21:07:13;29.42;;;14.93;;
36923;SDS011;22841;50.252;18.688;2023-11-19T21:09:39;30.90;;;14.90;;
36923;SDS011;22841;50.252;18.688;2023-11-19T21:12:05;30.38;;;14.50;;
36923;SDS011;22841;50.252;18.688;2023-11-19T21:14:33;22.10;;;13.25;;
36923;SDS011;22841;50.252;18.688;2023-11-19T21:16:59;25.67;;;14.40;;
36923;SDS011;22841;50.252;18.688;2023-11-19T21:19:26;24.90;;;13.13;;
36923;SDS011;22841;50.252;18.688;2023-11-19T21:21:52;22.85;;;12.82;;
36923;SDS011;22841;50.252;18.688;2023-11-19T21:24:19;33.90;;;13.93;;
36923;SDS011;22841;50.252;18.688;2023-11-19T21:26:45;25.38;;;13.20;;
36923;SDS011;22841;50.252;18.688;2023-11-19T21:29:11;22.15;;;12.95;;
36923;SDS011;22841;50.252;18.688;2023-11-19T21:31:38;26.52;;;14.20;;
36923;SDS011;22841;50.252;18.688;2023-11-19T21:34:14;30.23;;;14.15;;
36923;SDS011;22841;50.252;18.688;2023-11-19T21:36:40;22.10;;;12.98;;
36923;SDS011;22841;50.252;18.688;2023-11-19T21:39:06;32.13;;;13.65;;
36923;SDS011;22841;50.252;18.688;2023-11-19T21:41:34;24.67;;;13.38;;
36923;SDS011;22841;50.252;18.688;2023-11-19T21:44:00;29.88;;;14.05;;
36923;SDS011;22841;50.252;18.688;2023-11-19T21:46:26;25.77;;;13.00;;
36923;SDS011;22841;50.252;18.688;2023-11-19T21:48:52;32.78;;;13.48;;
36923;SDS011;22841;50.252;18.688;2023-11-19T21:51:19;30.08;;;13.52;;
36923;SDS011;22841;50.252;18.688;2023-11-19T21:53:45;27.33;;;13.60;;
36923;SDS011;22841;50.252;18.688;2023-11-19T21:56:11;25.20;;;14.05;;
36923;SDS011;22841;50.252;18.688;2023-11-19T21:58:37;26.05;;;13.15;;
36923;SDS011;22841;50.252;18.688;2023-11-19T22:01:03;22.48;;;11.98;;
36923;SDS011;22841;50.252;18.688;2023-11-19T22:03:30;24.83;;;12.68;;
36923;SDS011;22841;50.252;18.688;2023-11-19T22:05:56;22.52;;;12.45;;
36923;SDS011;22841;50.252;18.688;2023-11-19T22:08:22;21.02;;;11.70;;
36923;SDS011;22841;50.252;18.688;2023-11-19T22:10:48;24.83;;;11.25;;
36923;SDS011;22841;50.252;18.688;2023-11-19T22:13:14;22.88;;;11.35;;
36923;SDS011;22841;50.252;18.688;2023-11-19T22:15:40;22.23;;;11.38;;
36923;SDS011;22841;50.252;18.688;2023-11-19T22:18:07;27.20;;;12.00;;
36923;SDS011;22841;50.252;18.688;2023-11-19T22:20:35;20.63;;;11.73;;
36923;SDS011;22841;50.252;18.688;2023-11-19T22:23:02;23.85;;;11.48;;
36923;SDS011;22841;50.252;18.688;2023-11-19T22:25:28;28.67;;;10.52;;
36923;SDS011;22841;50.252;18.688;2023-11-19T22:27:54;21.85;;;10.77;;
36923;SDS011;22841;50.252;18.688;2023-11-19T22:30:21;24.15;;;11.27;;
36923;SDS011;22841;50.252;18.688;2023-11-19T22:32:47;24.15;;;10.98;;
36923;SDS011;22841;50.252;18.688;2023-11-19T22:35:13;22.42;;;9.98;;
36923;SDS011;22841;50.252;18.688;2023-11-19T22:37:40;17.98;;;9.75;;
36923;SDS011;22841;50.252;18.688;2023-11-19T22:40:06;19.20;;;10.52;;
36923;SDS011;22841;50.252;18.688;2023-11-19T22:42:34;23.48;;;11.40;;